Time;durP1;ratioP1;P1;durP2;ratioP2;P2;SDS_P1;SDS_P2;PMS_P1;PMS_P2;Temp;Humidity;BMP_temperature;BMP_pressure;BME280_temperature;BME280_humidity;BME280_pressure;Samples;Min_cycle;Max_cycle;Signal;HPM_P1;HPM_P2
2023/11/30 00:01:12;;;;;;;13.82;9.40;;;3.30;99.90;;;;;;4169052;28;21427;-72
2023/11/30 00:03:12;;;;;;;14.10;9.07;;;3.20;99.90;;;;;;4168468;28;20418;-72
2023/11/30 00:05:13;;;;;;;13.70;9.15;;;3.30;99.90;;;;;;4167206;28;20033;-72
2023/11/30 00:07:14;;;;;;;17.25;10.13;;;3.30;99.90;;;;;;4163613;28;20113;-72
2023/11/30 00:09:14;;;;;;;16.95;10.32;;;3.20;99.90;;;;;;4164442;28;20519;-73
2023/11/30 00:11:15;;;;;;;14.70;9.00;;;3.30;99.90;;;;;;4168734;28;20402;-72
2023/11/30 00:13:15;;;;;;;12.20;9.18;;;3.30;99.90;;;;;;4152319;28;20183;-72
2023/11/30 00:15:16;;;;;;;13.20;9.35;;;3.30;99.90;;;;;;4167794;28;20022;-73
2023/11/30 00:17:16;;;;;;;15.18;9.65;;;3.30;99.90;;;;;;4151967;28;20116;-71
2023/11/30 00:19:17;;;;;;;14.77;10.00;;;3.30;99.90;;;;;;4165489;28;20095;-72
2023/11/30 00:21:18;;;;;;;15.00;9.88;;;3.30;99.90;;;;;;4167924;28;20029;-71
2023/11/30 00:23:18;;;;;;;18.30;10.30;;;3.30;99.90;;;;;;4167965;28;20068;-71
2023/11/30 00:25:19;;;;;;;16.73;10.25;;;3.30;99.90;;;;;;4162879;28;20402;-71
2023/11/30 00:27:19;;;;;;;14.95;9.68;;;3.30;99.90;;;;;;4147288;28;20847;-72
2023/11/30 00:29:20;;;;;;;16.00;9.93;;;3.30;99.90;;;;;;4168721;28;20037;-72
2023/11/30 00:31:20;;;;;;;14.45;10.10;;;3.20;99.90;;;;;;4154766;28;20037;-72
2023/11/30 00:33:21;;;;;;;15.38;10.05;;;3.20;99.90;;;;;;4173258;28;20037;-72
2023/11/30 00:35:21;;;;;;;14.48;9.93;;;3.20;99.90;;;;;;4168134;28;20037;-72
2023/11/30 00:37:22;;;;;;;16.15;10.65;;;3.20;99.90;;;;;;4170282;28;20103;-72
2023/11/30 00:39:23;;;;;;;16.23;10.65;;;3.20;99.90;;;;;;4168985;28;20029;-72
2023/11/30 00:41:23;;;;;;;13.70;8.90;;;3.20;99.90;;;;;;4168023;28;20033;-72
2023/11/30 00:43:24;;;;;;;13.48;9.35;;;3.20;99.90;;;;;;4170218;28;20094;-72
2023/11/30 00:45:24;;;;;;;12.38;8.20;;;3.30;99.90;;;;;;4168214;28;20052;-72
2023/11/30 00:47:25;;;;;;;11.40;8.23;;;3.30;99.90;;;;;;4169046;28;20119;-72
2023/11/30 00:49:25;;;;;;;12.23;8.10;;;3.30;99.90;;;;;;4149489;28;20415;-72
2023/11/30 00:51:28;;;;;;;13.68;8.63;;;3.30;99.90;;;;;;4169476;28;20052;-71
2023/11/30 00:53:29;;;;;;;12.30;8.00;;;3.30;99.90;;;;;;4170464;28;20395;-72
2023/11/30 00:55:29;;;;;;;12.07;7.75;;;3.30;99.90;;;;;;4170608;28;20029;-72
2023/11/30 00:57:30;;;;;;;12.02;8.43;;;3.30;99.90;;;;;;4171377;28;20041;-72
2023/11/30 00:59:30;;;;;;;12.63;8.40;;;3.30;99.90;;;;;;4144822;28;20101;-72
2023/11/30 01:01:31;;;;;;;13.18;8.60;;;3.30;99.90;;;;;;4165581;28;20048;-72
2023/11/30 01:03:32;;;;;;;13.38;9.15;;;3.30;99.90;;;;;;4169626;28;20040;-72
2023/11/30 01:05:32;;;;;;;11.27;7.78;;;3.30;99.90;;;;;;4165826;28;20104;-72
2023/11/30 01:07:33;;;;;;;9.82;7.13;;;3.30;99.90;;;;;;4170262;28;20461;-72
2023/11/30 01:09:34;;;;;;;11.63;7.90;;;3.30;99.90;;;;;;4161597;28;20167;-72
2023/11/30 01:11:41;;;;;;;13.23;7.95;;;3.30;99.90;;;;;;4167822;28;20479;-72
2023/11/30 01:13:41;;;;;;;11.27;8.00;;;3.20;99.90;;;;;;4170018;28;20103;-72
2023/11/30 01:15:42;;;;;;;11.88;8.65;;;3.20;99.90;;;;;;4163288;28;20036;-72
2023/11/30 01:17:42;;;;;;;12.82;8.38;;;3.20;99.90;;;;;;4167219;28;20041;-72
2023/11/30 01:19:43;;;;;;;11.43;8.00;;;3.20;99.90;;;;;;4168244;28;20063;-72
2023/11/30 01:21:44;;;;;;;14.27;8.48;;;3.20;99.90;;;;;;4169660;28;20029;-72
2023/11/30 01:23:44;;;;;;;12.60;8.23;;;3.20;99.90;;;;;;4149775;28;20033;-72
2023/11/30 01:25:45;;;;;;;11.25;8.00;;;3.20;99.90;;;;;;4166247;28;20045;-72
2023/11/30 01:27:47;;;;;;;12.10;7.72;;;3.20;99.90;;;;;;4166186;28;20037;-72
2023/11/30 01:29:48;;;;;;;;;;;3.20;99.90;;;;;;4169703;28;20087;-72
2023/11/30 01:31:48;;;;;;;10.88;7.95;;;3.20;99.90;;;;;;4162753;28;19941;-72
2023/11/30 01:33:49;;;;;;;13.13;8.48;;;3.20;99.90;;;;;;4165228;28;20041;-73
2023/11/30 01:35:49;;;;;;;14.13;8.63;;;3.20;99.90;;;;;;4168191;28;20507;-73
2023/11/30 01:37:50;;;;;;;11.02;7.93;;;3.20;99.90;;;;;;4168217;28;22534;-73
2023/11/30 01:39:50;;;;;;;11.52;7.65;;;3.20;99.90;;;;;;4166499;28;20046;-72
2023/11/30 01:41:51;;;;;;;11.88;8.05;;;3.20;99.90;;;;;;4170324;28;20029;-73
2023/11/30 01:43:52;;;;;;;13.77;8.35;;;3.10;99.90;;;;;;4169910;28;20044;-73
2023/11/30 01:45:53;;;;;;;11.82;7.97;;;3.10;99.90;;;;;;4170595;28;20376;-73
2023/11/30 01:47:54;;;;;;;10.63;7.72;;;3.10;99.90;;;;;;4172974;28;20734;-72
2023/11/30 01:49:55;;;;;;;13.13;8.10;;;3.10;99.90;;;;;;4151795;28;20057;-72
2023/11/30 01:51:56;;;;;;;11.57;7.72;;;3.10;99.90;;;;;;4168074;28;20120;-73
2023/11/30 01:53:57;;;;;;;11.60;8.05;;;3.10;99.90;;;;;;4165444;28;20083;-73
2023/11/30 01:55:58;;;;;;;12.73;8.15;;;3.00;99.90;;;;;;4150807;28;20116;-72
2023/11/30 01:57:59;;;;;;;13.45;8.50;;;2.90;99.90;;;;;;4121821;28;20075;-73
2023/11/30 02:00:00;;;;;;;13.60;9.10;;;2.80;99.90;;;;;;4148744;28;20041;-72
2023/11/30 02:02:01;;;;;;;12.88;8.77;;;2.80;99.90;;;;;;4168964;28;20052;-72
2023/11/30 02:04:13;;;;;;;12.88;9.05;;;2.70;99.90;;;;;;4168559;28;20068;-72
2023/11/30 02:06:16;;;;;;;13.75;8.32;;;2.60;99.90;;;;;;4167947;28;20033;-73
2023/11/30 02:08:17;;;;;;;13.25;8.38;;;2.60;99.90;;;;;;4146486;28;20053;-73
2023/11/30 02:10:17;;;;;;;14.80;8.38;;;2.60;99.90;;;;;;4168649;28;20033;-73
2023/11/30 02:12:18;;;;;;;13.20;8.18;;;2.60;99.90;;;;;;4160835;28;20113;-73
2023/11/30 02:14:19;;;;;;;13.50;8.27;;;2.60;99.90;;;;;;4152413;28;20045;-73
2023/11/30 02:16:19;;;;;;;15.60;8.63;;;2.70;99.90;;;;;;4171281;28;20036;-72
2023/11/30 02:18:20;;;;;;;14.85;9.57;;;2.70;99.90;;;;;;4163913;28;20487;-73
2023/11/30 02:20:20;;;;;;;13.45;8.07;;;2.70;99.90;;;;;;4164934;28;20033;-73
2023/11/30 02:22:21;;;;;;;10.18;7.20;;;2.80;99.90;;;;;;4167895;28;20635;-73
2023/11/30 02:24:22;;;;;;;13.40;8.82;;;2.80;99.90;;;;;;4166512;28;20375;-72
2023/11/30 02:26:22;;;;;;;12.07;8.15;;;2.80;99.90;;;;;;4168734;28;20033;-73
2023/11/30 02:28:23;;;;;;;12.13;8.23;;;2.80;99.90;;;;;;4172412;28;20509;-74
2023/11/30 02:30:23;;;;;;;13.57;8.60;;;2.80;99.90;;;;;;4164206;28;20045;-73
2023/11/30 02:32:24;;;;;;;14.10;8.85;;;2.90;99.90;;;;;;4170211;28;20029;-74
2023/11/30 02:34:26;;;;;;;14.07;8.65;;;2.90;99.90;;;;;;4171116;28;20040;-74
2023/11/30 02:36:26;;;;;;;13.88;8.90;;;2.90;99.90;;;;;;4170569;28;20522;-74
2023/11/30 02:38:27;;;;;;;13.85;8.68;;;2.90;99.90;;;;;;4166826;28;20790;-74
2023/11/30 02:40:27;;;;;;;14.52;8.30;;;2.90;99.90;;;;;;4160249;28;20099;-74
2023/11/30 02:42:28;;;;;;;12.82;7.95;;;2.90;99.90;;;;;;4166364;28;20029;-73
2023/11/30 02:44:29;;;;;;;15.38;8.75;;;2.90;99.90;;;;;;4168057;28;20033;-74
2023/11/30 02:46:29;;;;;;;13.18;8.43;;;2.90;99.90;;;;;;4166791;28;20084;-74
2023/11/30 02:48:30;;;;;;;10.35;7.60;;;2.90;99.90;;;;;;4167943;28;20076;-71
2023/11/30 02:50:30;;;;;;;12.38;7.85;;;2.90;99.90;;;;;;4164978;28;20040;-71
2023/11/30 02:52:31;;;;;;;14.40;8.23;;;2.90;99.90;;;;;;4165935;28;20669;-71
2023/11/30 02:54:32;;;;;;;11.77;8.23;;;2.90;99.90;;;;;;4167711;28;20506;-71
2023/11/30 02:56:40;;;;;;;13.32;8.10;;;2.90;99.90;;;;;;4170281;28;20099;-72
2023/11/30 02:58:41;;;;;;;13.55;7.93;;;2.90;99.90;;;;;;4162499;28;20044;-71
2023/11/30 03:00:42;;;;;;;11.43;7.63;;;2.90;99.90;;;;;;4162790;28;20457;-71
2023/11/30 03:02:42;;;;;;;10.45;7.20;;;2.90;99.90;;;;;;4165025;28;20544;-71
2023/11/30 03:04:44;;;;;;;16.35;8.65;;;2.90;99.90;;;;;;4168819;28;20387;-72
2023/11/30 03:06:49;;;;;;;14.65;8.32;;;2.90;99.90;;;;;;4165279;28;20471;-71
2023/11/30 03:08:50;;;;;;;14.23;8.27;;;2.90;99.90;;;;;;4165019;28;20110;-72
2023/11/30 03:10:50;;;;;;;11.20;7.35;;;2.90;99.90;;;;;;4164629;28;20029;-71
2023/11/30 03:12:51;;;;;;;14.68;7.90;;;2.90;99.90;;;;;;4150605;28;20032;-71
2023/11/30 03:14:52;;;;;;;13.77;7.70;;;2.90;99.90;;;;;;4167974;28;20468;-72
2023/11/30 03:16:52;;;;;;;15.00;8.07;;;2.90;99.90;;;;;;4170214;28;20029;-71
2023/11/30 03:18:54;;;;;;;13.57;7.55;;;3.00;99.90;;;;;;4165897;28;20475;-72
2023/11/30 03:20:54;;;;;;;11.85;7.22;;;2.90;99.90;;;;;;4164729;28;20056;-71
2023/11/30 03:22:55;;;;;;;11.25;7.18;;;2.90;99.90;;;;;;4169317;28;20033;-72
2023/11/30 03:24:56;;;;;;;11.68;7.32;;;2.90;99.90;;;;;;4170638;28;20049;-71
2023/11/30 03:26:56;;;;;;;13.32;7.80;;;2.90;99.90;;;;;;4172432;28;20055;-71
2023/11/30 03:28:57;;;;;;;13.45;8.15;;;2.90;99.90;;;;;;4166846;28;20534;-72
2023/11/30 03:30:57;;;;;;;11.85;7.25;;;2.90;99.90;;;;;;4167844;28;20045;-72
2023/11/30 03:32:58;;;;;;;14.10;7.50;;;2.90;99.90;;;;;;4170767;28;20034;-71
2023/11/30 03:34:59;;;;;;;15.27;8.50;;;2.90;99.90;;;;;;4170663;28;20033;-71
2023/11/30 03:36:59;;;;;;;12.77;8.40;;;2.90;99.90;;;;;;4172220;28;20117;-72
2023/11/30 03:39:00;;;;;;;12.45;8.07;;;2.90;99.90;;;;;;4173239;28;20037;-72
2023/11/30 03:41:01;;;;;;;13.43;8.40;;;2.80;99.90;;;;;;4172987;28;20121;-72
2023/11/30 03:43:01;;;;;;;12.88;8.18;;;2.80;99.90;;;;;;4171349;28;20028;-72
2023/11/30 03:45:02;;;;;;;13.18;8.05;;;2.70;99.90;;;;;;4155979;28;20061;-73
2023/11/30 03:47:02;;;;;;;15.10;8.88;;;2.70;99.90;;;;;;4155440;28;20729;-73
2023/11/30 03:49:03;;;;;;;15.02;8.48;;;2.80;99.90;;;;;;4172598;28;20063;-73
2023/11/30 03:51:04;;;;;;;11.55;7.68;;;2.80;99.90;;;;;;4149961;28;20062;-72
2023/11/30 03:53:05;;;;;;;13.45;7.75;;;2.80;99.90;;;;;;4170537;28;20068;-73
2023/11/30 03:55:05;;;;;;;11.95;7.68;;;2.80;99.90;;;;;;4173828;28;20033;-73
2023/11/30 03:57:06;;;;;;;15.10;8.38;;;2.80;99.90;;;;;;4151836;28;20061;-73
2023/11/30 03:59:09;;;;;;;12.95;7.68;;;2.90;99.90;;;;;;4170547;28;20411;-72
2023/11/30 04:01:09;;;;;;;14.20;7.57;;;2.90;99.90;;;;;;4169735;28;20057;-71
2023/11/30 04:03:10;;;;;;;11.98;7.45;;;2.90;99.90;;;;;;4153043;28;20041;-71
2023/11/30 04:05:11;;;;;;;12.05;7.75;;;2.90;99.90;;;;;;4135237;28;20064;-72
2023/11/30 04:07:12;;;;;;;13.82;7.38;;;2.80;99.90;;;;;;4170565;28;20115;-72
2023/11/30 04:09:14;;;;;;;11.48;7.03;;;2.80;99.90;;;;;;4170242;28;20044;-71
2023/11/30 04:11:15;;;;;;;11.75;7.60;;;2.90;99.90;;;;;;4173369;28;20053;-71
2023/11/30 04:13:16;;;;;;;12.80;8.48;;;2.90;99.90;;;;;;4161942;28;20170;-72
2023/11/30 04:15:17;;;;;;;12.05;7.53;;;2.90;99.90;;;;;;4171646;28;20045;-72
2023/11/30 04:17:17;;;;;;;12.98;7.78;;;2.90;99.90;;;;;;4170787;28;20029;-71
2023/11/30 04:19:18;;;;;;;13.25;7.53;;;2.90;99.90;;;;;;4152825;28;20068;-71
2023/11/30 04:21:20;;;;;;;11.90;7.68;;;2.90;99.90;;;;;;4151090;28;20034;-71
2023/11/30 04:23:21;;;;;;;;;;;2.90;99.90;;;;;;4178448;28;20568;-71
2023/11/30 04:25:22;;;;;;;14.48;8.00;;;2.90;99.90;;;;;;4170934;28;19928;-73
2023/11/30 04:27:22;;;;;;;10.80;7.47;;;2.90;99.90;;;;;;4169537;28;20072;-72
2023/11/30 04:29:23;;;;;;;11.32;7.43;;;2.90;99.90;;;;;;4168921;28;20033;-72
2023/11/30 04:31:24;;;;;;;11.00;6.85;;;2.90;99.90;;;;;;4151235;28;20025;-72
2023/11/30 04:33:24;;;;;;;10.32;6.90;;;2.90;99.90;;;;;;4171863;28;20049;-72
2023/11/30 04:35:25;;;;;;;9.55;6.35;;;2.90;99.90;;;;;;4137224;28;20038;-71
2023/11/30 04:37:25;;;;;;;10.15;6.78;;;2.90;99.90;;;;;;4169422;28;20112;-71
2023/11/30 04:39:26;;;;;;;9.73;6.38;;;2.90;99.90;;;;;;4152530;28;20030;-71
2023/11/30 04:41:26;;;;;;;9.45;6.78;;;2.90;99.90;;;;;;4171728;28;20040;-72
2023/11/30 04:43:27;;;;;;;12.82;7.28;;;2.90;99.90;;;;;;4172267;28;20032;-71
2023/11/30 04:45:28;;;;;;;11.32;7.25;;;2.80;99.90;;;;;;4161925;28;20041;-71
2023/11/30 04:47:28;;;;;;;16.30;8.38;;;2.80;99.90;;;;;;4154200;28;20030;-71
2023/11/30 04:49:29;;;;;;;15.55;8.07;;;2.70;99.90;;;;;;4146031;28;20049;-73
2023/11/30 04:51:29;;;;;;;13.68;8.68;;;2.60;99.90;;;;;;4145585;28;20395;-73
2023/11/30 04:53:31;;;;;;;12.00;7.40;;;2.60;99.90;;;;;;4164340;28;20464;-73
2023/11/30 04:55:31;;;;;;;9.50;7.03;;;2.60;99.90;;;;;;4169622;28;20127;-74
2023/11/30 04:57:32;;;;;;;13.75;8.57;;;2.60;99.90;;;;;;4170161;28;20045;-73
2023/11/30 04:59:33;;;;;;;12.15;8.10;;;2.60;99.90;;;;;;4171043;28;20217;-73
2023/11/30 05:01:33;;;;;;;13.77;8.43;;;2.60;99.90;;;;;;4166359;28;20041;-74
2023/11/30 05:03:35;;;;;;;12.55;8.10;;;2.60;99.90;;;;;;4170111;28;20096;-74
2023/11/30 05:05:35;;;;;;;12.05;7.25;;;2.60;99.90;;;;;;4168092;28;20060;-74
2023/11/30 05:07:36;;;;;;;11.48;7.25;;;2.70;99.90;;;;;;4170638;28;20033;-73
2023/11/30 05:09:36;;;;;;;13.35;8.45;;;2.70;99.90;;;;;;4167919;28;20056;-72
2023/11/30 05:11:37;;;;;;;13.20;8.60;;;2.70;99.90;;;;;;4168431;28;20038;-72
2023/11/30 05:13:37;;;;;;;11.52;7.90;;;2.70;99.90;;;;;;4170862;28;20033;-73
2023/11/30 05:15:39;;;;;;;13.88;8.40;;;2.70;99.90;;;;;;4170823;28;20025;-72
2023/11/30 05:17:40;;;;;;;13.07;7.67;;;2.70;99.90;;;;;;4171830;28;20086;-72
2023/11/30 05:19:40;;;;;;;12.52;8.25;;;2.70;99.90;;;;;;4153706;28;20841;-72
2023/11/30 05:21:41;;;;;;;13.60;7.60;;;2.70;99.90;;;;;;4148900;28;20041;-72
2023/11/30 05:23:41;;;;;;;12.18;7.72;;;2.70;99.90;;;;;;4155493;28;20045;-73
2023/11/30 05:25:42;;;;;;;12.75;7.47;;;2.80;99.90;;;;;;4168598;28;20041;-73
2023/11/30 05:27:43;;;;;;;11.02;7.32;;;2.80;99.90;;;;;;4173860;28;20037;-72
2023/11/30 05:29:43;;;;;;;12.23;7.63;;;2.80;99.90;;;;;;4167711;28;20491;-72
2023/11/30 05:31:44;;;;;;;11.20;7.88;;;2.80;99.90;;;;;;4168151;28;20082;-72
2023/11/30 05:33:44;;;;;;;13.07;7.53;;;2.80;99.90;;;;;;4173657;28;20031;-72
2023/11/30 05:35:45;;;;;;;11.88;7.30;;;2.90;99.90;;;;;;4166830;28;20037;-73
2023/11/30 05:37:46;;;;;;;10.60;7.60;;;2.90;99.90;;;;;;4171300;28;20025;-73
2023/11/30 05:39:47;;;;;;;9.73;7.40;;;2.90;99.90;;;;;;4169298;28;20537;-74
2023/11/30 05:41:48;;;;;;;12.48;7.90;;;2.90;99.90;;;;;;4170519;28;20032;-74
2023/11/30 05:43:49;;;;;;;11.90;7.78;;;2.90;99.90;;;;;;4164114;28;20052;-73
2023/11/30 05:45:49;;;;;;;11.38;7.40;;;2.90;99.90;;;;;;4150011;28;20049;-72
2023/11/30 05:47:50;;;;;;;15.63;7.40;;;2.90;99.90;;;;;;4153420;28;20496;-72
2023/11/30 05:49:51;;;;;;;11.23;7.32;;;2.90;99.90;;;;;;4171495;28;20028;-72
2023/11/30 05:51:52;;;;;;;11.48;7.43;;;2.90;99.90;;;;;;4169801;28;20174;-74
2023/11/30 05:53:53;;;;;;;10.27;7.55;;;2.90;99.90;;;;;;4164865;28;20040;-73
2023/11/30 05:55:53;;;;;;;11.57;8.00;;;2.80;99.90;;;;;;4172136;28;20537;-73
2023/11/30 05:57:54;;;;;;;13.18;7.80;;;2.80;99.90;;;;;;4147477;28;20034;-73
2023/11/30 05:59:55;;;;;;;10.02;6.63;;;2.80;99.90;;;;;;4167097;28;20550;-73
2023/11/30 06:01:55;;;;;;;10.30;7.05;;;2.80;99.90;;;;;;4164775;28;20422;-73
2023/11/30 06:03:56;;;;;;;11.23;7.53;;;2.80;99.90;;;;;;4166511;28;20175;-72
2023/11/30 06:05:56;;;;;;;9.68;6.30;;;2.80;99.90;;;;;;4130079;28;20049;-71
2023/11/30 06:07:57;;;;;;;9.65;6.85;;;2.80;99.90;;;;;;4165953;28;20632;-71
2023/11/30 06:09:58;;;;;;;10.70;6.88;;;2.80;99.90;;;;;;4168604;28;20497;-71
2023/11/30 06:11:58;;;;;;;9.82;7.30;;;2.80;99.90;;;;;;4169302;28;20029;-72
2023/11/30 06:13:59;;;;;;;11.05;7.28;;;2.80;99.90;;;;;;4166885;28;20048;-72
2023/11/30 06:15:59;;;;;;;10.63;6.90;;;2.80;99.90;;;;;;4165551;28;20041;-71
2023/11/30 06:18:00;;;;;;;9.82;7.15;;;2.80;99.90;;;;;;4168514;28;20037;-72
2023/11/30 06:20:00;;;;;;;10.13;7.15;;;2.80;99.90;;;;;;4166058;28;20036;-72
2023/11/30 06:22:02;;;;;;;12.32;7.60;;;2.80;99.90;;;;;;4167760;28;20043;-72
2023/11/30 06:24:02;;;;;;;11.25;7.72;;;2.80;99.90;;;;;;4167503;28;20112;-73
2023/11/30 06:26:03;;;;;;;13.93;7.95;;;2.90;99.90;;;;;;4151462;28;20435;-73
2023/11/30 06:28:04;;;;;;;13.05;7.97;;;2.90;99.90;;;;;;4149278;28;20503;-73
2023/11/30 06:30:05;;;;;;;17.30;10.63;;;2.90;99.90;;;;;;4165791;28;20088;-72
2023/11/30 06:32:06;;;;;;;16.23;9.65;;;2.90;99.90;;;;;;4170069;28;20041;-73
2023/11/30 06:34:07;;;;;;;14.68;9.80;;;2.90;99.90;;;;;;4170846;28;20136;-73
2023/11/30 06:36:08;;;;;;;14.40;8.80;;;3.00;99.90;;;;;;4165450;28;20410;-72
2023/11/30 06:38:10;;;;;;;12.07;7.88;;;3.00;99.90;;;;;;4149975;28;20037;-73
2023/11/30 06:40:11;;;;;;;10.05;6.88;;;3.00;99.90;;;;;;4167575;28;20049;-73
2023/11/30 06:42:11;;;;;;;15.27;8.30;;;3.00;99.90;;;;;;4165187;28;20466;-72
2023/11/30 06:44:12;;;;;;;12.57;8.02;;;3.00;99.90;;;;;;4167756;28;20128;-72
2023/11/30 06:46:25;;;;;;;11.05;7.20;;;3.00;99.90;;;;;;4148964;28;20038;-72
2023/11/30 06:48:26;;;;;;;13.07;7.85;;;3.00;99.90;;;;;;4144262;28;20052;-72
2023/11/30 06:50:27;;;;;;;13.85;7.85;;;3.00;99.90;;;;;;4162717;28;20512;-71
2023/11/30 06:52:27;;;;;;;11.23;7.90;;;3.00;99.90;;;;;;4150225;28;20038;-72
2023/11/30 06:54:28;;;;;;;11.98;7.93;;;3.00;99.90;;;;;;4168505;28;20045;-71
2023/11/30 06:56:28;;;;;;;11.57;7.82;;;3.00;99.90;;;;;;4156066;28;20025;-72
2023/11/30 06:58:29;;;;;;;12.63;8.02;;;3.00;99.90;;;;;;4170812;28;20037;-72
2023/11/30 07:00:30;;;;;;;11.70;7.65;;;3.00;99.90;;;;;;4158229;28;20037;-72
2023/11/30 07:02:31;;;;;;;12.32;7.38;;;3.00;99.90;;;;;;4153009;28;20037;-73
2023/11/30 07:04:32;;;;;;;11.00;7.32;;;3.00;99.90;;;;;;4168979;28;20581;-71
2023/11/30 07:06:32;;;;;;;11.38;7.40;;;3.10;99.90;;;;;;4169725;28;20044;-72
2023/11/30 07:08:33;;;;;;;11.70;7.55;;;3.00;99.90;;;;;;4171266;28;20033;-71
2023/11/30 07:10:33;;;;;;;13.07;8.90;;;3.00;99.90;;;;;;4168307;28;20044;-71
2023/11/30 07:12:34;;;;;;;17.58;9.07;;;3.10;99.90;;;;;;4170176;28;20044;-70
2023/11/30 07:14:35;;;;;;;17.75;8.15;;;3.10;99.90;;;;;;4172196;28;20200;-70
2023/11/30 07:16:35;;;;;;;14.63;7.85;;;3.10;99.90;;;;;;4154377;28;20475;-70
2023/11/30 07:18:36;;;;;;;13.45;8.10;;;3.10;99.90;;;;;;4154960;28;20495;-71
2023/11/30 07:20:37;;;;;;;14.43;8.93;;;3.10;99.90;;;;;;4169671;28;20123;-70
2023/11/30 07:22:37;;;;;;;13.95;9.05;;;3.10;99.90;;;;;;4173238;28;20044;-70
2023/11/30 07:24:38;;;;;;;16.23;8.73;;;3.10;99.90;;;;;;4150225;28;20060;-71
2023/11/30 07:26:38;;;;;;;16.30;9.95;;;3.10;99.90;;;;;;4153263;28;20415;-72
2023/11/30 07:28:40;;;;;;;17.45;10.20;;;3.10;99.90;;;;;;4152386;28;20521;-72
2023/11/30 07:30:42;;;;;;;15.00;9.55;;;3.10;99.90;;;;;;4144605;28;20060;-72
2023/11/30 07:32:42;;;;;;;15.73;10.60;;;3.10;99.90;;;;;;4155461;28;20030;-72
2023/11/30 07:34:44;;;;;;;16.23;9.20;;;3.10;99.90;;;;;;4152565;28;20120;-73
2023/11/30 07:36:45;;;;;;;15.00;9.27;;;3.10;99.90;;;;;;4152221;28;20442;-73
2023/11/30 07:38:45;;;;;;;15.07;9.57;;;3.10;99.90;;;;;;4150067;28;20025;-73
2023/11/30 07:40:47;;;;;;;15.95;10.10;;;3.10;99.90;;;;;;4148236;28;20715;-73
2023/11/30 07:42:47;;;;;;;16.20;9.98;;;3.10;99.90;;;;;;4156643;28;20479;-74
2023/11/30 07:44:48;;;;;;;15.82;9.73;;;3.10;99.90;;;;;;4153856;28;20026;-74
2023/11/30 07:46:49;;;;;;;14.70;8.93;;;3.20;99.90;;;;;;4150124;28;20039;-74
2023/11/30 07:48:49;;;;;;;16.88;9.73;;;3.10;99.90;;;;;;4148415;28;20052;-74
2023/11/30 07:50:53;;;;;;;14.70;9.13;;;3.10;99.90;;;;;;4145445;28;20033;-74
2023/11/30 07:52:54;;;;;;;16.38;8.45;;;3.10;99.90;;;;;;4141788;28;20065;-74
2023/11/30 07:54:55;;;;;;;13.70;8.63;;;3.10;99.90;;;;;;4144239;28;20117;-74
2023/11/30 07:56:56;;;;;;;15.63;9.40;;;3.10;99.90;;;;;;4145967;28;20045;-74
2023/11/30 07:58:57;;;;;;;15.43;9.18;;;3.10;99.90;;;;;;4147438;28;20608;-74
2023/11/30 08:00:59;;;;;;;16.77;9.70;;;3.10;99.90;;;;;;4149864;28;20112;-74
2023/11/30 08:03:01;;;;;;;16.35;9.68;;;3.10;99.90;;;;;;4150894;28;20048;-74
2023/11/30 08:05:04;;;;;;;14.75;9.40;;;3.10;99.90;;;;;;4150671;28;20652;-74
2023/11/30 08:07:05;;;;;;;13.68;9.20;;;3.10;99.90;;;;;;4148121;28;20072;-74
2023/11/30 08:09:08;;;;;;;18.25;10.57;;;3.10;99.90;;;;;;4149288;28;20149;-74
2023/11/30 08:11:08;;;;;;;18.88;11.55;;;3.10;99.90;;;;;;4146554;28;20537;-74
2023/11/30 08:13:11;;;;;;;18.17;10.50;;;3.10;99.90;;;;;;4146280;28;20046;-74
2023/11/30 08:15:12;;;;;;;20.63;11.57;;;3.20;99.90;;;;;;4143847;28;20515;-73
2023/11/30 08:17:14;;;;;;;18.17;11.73;;;3.20;99.90;;;;;;4147708;28;20033;-74
2023/11/30 08:19:15;;;;;;;17.33;10.38;;;3.20;99.90;;;;;;4145238;28;20038;-71
2023/11/30 08:21:15;;;;;;;15.27;9.75;;;3.20;99.90;;;;;;4150216;28;20124;-73
2023/11/30 08:23:17;;;;;;;15.90;10.18;;;3.20;99.90;;;;;;4145754;28;20057;-73
2023/11/30 08:25:18;;;;;;;16.83;10.38;;;3.20;99.90;;;;;;4141107;28;20042;-71
2023/11/30 08:27:21;;;;;;;16.90;10.27;;;3.20;99.90;;;;;;4147613;28;20117;-72
2023/11/30 08:29:22;;;;;;;16.27;10.73;;;3.20;99.90;;;;;;4143871;28;20041;-70
2023/11/30 08:31:23;;;;;;;15.05;9.20;;;3.30;99.90;;;;;;4139169;28;20036;-71
2023/11/30 08:33:24;;;;;;;15.00;10.02;;;3.30;99.90;;;;;;4149713;28;20588;-71
2023/11/30 08:35:27;;;;;;;18.88;10.38;;;3.30;99.90;;;;;;4148691;28;20034;-71
2023/11/30 08:37:28;;;;;;;15.75;9.75;;;3.40;99.90;;;;;;4144908;28;20125;-72
2023/11/30 08:39:30;;;;;;;17.60;10.35;;;3.40;99.90;;;;;;4138583;28;20132;-73
2023/11/30 08:41:31;;;;;;;16.23;10.35;;;3.40;99.90;;;;;;4140833;28;20531;-73
2023/11/30 08:43:32;;;;;;;17.13;10.25;;;3.50;99.90;;;;;;4151336;28;20556;-74
2023/11/30 08:45:33;;;;;;;17.88;10.60;;;3.50;99.90;;;;;;4145576;28;20745;-74
2023/11/30 08:47:34;;;;;;;17.20;10.88;;;3.50;99.90;;;;;;4149553;28;20060;-73
2023/11/30 08:49:35;;;;;;;15.68;10.32;;;3.50;99.90;;;;;;4146917;28;21242;-74
2023/11/30 08:51:36;;;;;;;15.70;10.25;;;3.60;99.90;;;;;;4147205;28;20037;-73
2023/11/30 08:53:37;;;;;;;17.90;10.68;;;3.60;99.90;;;;;;4145987;28;20046;-74
2023/11/30 08:55:38;;;;;;;15.70;10.05;;;3.60;99.90;;;;;;4148054;28;20369;-73
2023/11/30 08:57:40;;;;;;;14.90;9.65;;;3.60;99.90;;;;;;4151821;28;20040;-74
2023/11/30 08:59:41;;;;;;;13.15;9.07;;;3.60;99.90;;;;;;4145926;28;20042;-73
2023/11/30 09:01:42;;;;;;;11.95;8.55;;;3.60;99.90;;;;;;4145044;28;20025;-73
2023/11/30 09:03:43;;;;;;;15.38;9.27;;;3.60;99.90;;;;;;4149165;28;20084;-73
2023/11/30 09:05:44;;;;;;;14.95;9.10;;;3.60;99.90;;;;;;4147676;28;20084;-73
2023/11/30 09:07:46;;;;;;;12.20;8.43;;;3.60;99.90;;;;;;4146999;28;20041;-73
2023/11/30 09:09:47;;;;;;;13.32;8.07;;;3.60;99.90;;;;;;4146541;28;20617;-73
2023/11/30 09:11:49;;;;;;;13.23;8.98;;;3.50;99.90;;;;;;4146964;28;20048;-73
2023/11/30 09:13:50;;;;;;;16.88;10.15;;;3.50;99.90;;;;;;4148905;28;20041;-73
2023/11/30 09:15:50;;;;;;;19.27;11.43;;;3.50;99.90;;;;;;4152480;28;20723;-73
2023/11/30 09:17:51;;;;;;;19.17;12.20;;;3.50;99.90;;;;;;4154802;28;20029;-73
2023/11/30 09:19:51;;;;;;;22.92;12.88;;;3.50;99.90;;;;;;4152813;28;20116;-72
2023/11/30 09:21:52;;;;;;;21.02;13.00;;;3.50;99.90;;;;;;4150906;28;20029;-73
2023/11/30 09:23:53;;;;;;;20.00;12.93;;;3.50;99.90;;;;;;4155078;28;20045;-73
2023/11/30 09:25:53;;;;;;;25.33;14.75;;;3.50;99.90;;;;;;4169114;28;20071;-73
2023/11/30 09:27:54;;;;;;;26.30;14.50;;;3.50;99.90;;;;;;4169579;28;20045;-73
2023/11/30 09:29:55;;;;;;;22.95;13.48;;;3.50;99.90;;;;;;4152008;28;20031;-74
2023/11/30 09:31:55;;;;;;;19.48;11.93;;;3.50;99.90;;;;;;4162820;28;20526;-73
2023/11/30 09:33:56;;;;;;;26.58;13.68;;;3.50;99.90;;;;;;4147021;28;20541;-74
2023/11/30 09:35:59;;;;;;;21.27;12.73;;;3.60;99.90;;;;;;4161428;28;20161;-74
2023/11/30 09:38:00;;;;;;;;;;;3.60;99.90;;;;;;4166334;28;20025;-74
2023/11/30 09:40:00;;;;;;;18.85;11.52;;;3.60;99.90;;;;;;4147760;28;19975;-74
2023/11/30 09:42:03;;;;;;;19.85;11.93;;;3.60;99.90;;;;;;4165331;28;20045;-74
2023/11/30 09:44:06;;;;;;;16.38;11.48;;;3.70;99.90;;;;;;4169834;28;20048;-73
2023/11/30 09:46:07;;;;;;;20.00;12.60;;;3.60;99.90;;;;;;4167093;28;20045;-74
2023/11/30 09:48:07;;;;;;;18.42;11.05;;;3.70;99.90;;;;;;4156214;28;20044;-73
2023/11/30 09:50:10;;;;;;;21.95;11.63;;;3.80;99.90;;;;;;4163353;28;20502;-73
2023/11/30 09:52:11;;;;;;;18.00;11.82;;;3.80;99.90;;;;;;4166143;28;20120;-73
2023/11/30 09:54:12;;;;;;;20.95;12.60;;;3.80;99.90;;;;;;4156163;28;20522;-73
2023/11/30 09:56:14;;;;;;;20.73;12.02;;;3.90;99.90;;;;;;4150148;28;20037;-73
2023/11/30 09:58:15;;;;;;;23.35;13.40;;;3.90;99.90;;;;;;4121656;28;20022;-73
2023/11/30 10:00:16;;;;;;;20.85;13.77;;;3.90;99.90;;;;;;4158454;28;20033;-73
2023/11/30 10:02:19;;;;;;;26.92;15.00;;;4.00;99.90;;;;;;4162850;28;20116;-74
2023/11/30 10:04:19;;;;;;;27.27;15.27;;;4.00;99.90;;;;;;4162644;28;20108;-73
2023/11/30 10:06:20;;;;;;;26.98;15.82;;;4.00;99.90;;;;;;4167068;28;20065;-73
2023/11/30 10:08:21;;;;;;;27.20;15.55;;;4.00;99.90;;;;;;4164077;28;20482;-73
2023/11/30 10:10:22;;;;;;;28.95;17.05;;;4.00;99.90;;;;;;4168494;28;20608;-73
2023/11/30 10:12:24;;;;;;;25.30;15.55;;;4.00;99.90;;;;;;4166992;28;20116;-73
2023/11/30 10:14:25;;;;;;;26.92;15.85;;;4.00;99.90;;;;;;4165154;28;20502;-73
2023/11/30 10:16:26;;;;;;;28.20;16.00;;;4.10;99.90;;;;;;4164399;28;20082;-73
2023/11/30 10:18:28;;;;;;;29.88;17.95;;;4.10;99.90;;;;;;4164962;28;20045;-73
2023/11/30 10:20:28;;;;;;;28.17;15.73;;;4.10;99.90;;;;;;4147098;28;20041;-73
2023/11/30 10:22:30;;;;;;;30.90;18.35;;;4.20;99.90;;;;;;4167139;28;20686;-73
2023/11/30 10:24:30;;;;;;;31.05;18.73;;;4.10;99.90;;;;;;4149878;28;20058;-73
2023/11/30 10:26:34;;;;;;;37.10;18.52;;;4.20;99.90;;;;;;4160764;28;20112;-73
2023/11/30 10:28:36;;;;;;;34.88;19.50;;;4.10;99.90;;;;;;4161046;28;20099;-73